sensor_id;sensor_type;location;lat;lon;timestamp;P1;durP1;ratioP1;P2;durP2;ratioP2
13605;SDS011;6874;52.084;5.090;2023-02-12T00:00:34;117.50;;;113.37;;
13605;SDS011;6874;52.084;5.090;2023-02-12T00:03:00;123.43;;;119.10;;
13605;SDS011;6874;52.084;5.090;2023-02-12T00:05:26;120.27;;;116.00;;
13605;SDS011;6874;52.084;5.090;2023-02-12T00:07:52;115.40;;;111.33;;
13605;SDS011;6874;52.084;5.090;2023-02-12T00:10:18;122.97;;;118.70;;
13605;SDS011;6874;52.084;5.090;2023-02-12T00:12:43;119.70;;;115.50;;
13605;SDS011;6874;52.084;5.090;2023-02-12T00:15:09;121.23;;;116.97;;
13605;SDS011;6874;52.084;5.090;2023-02-12T00:17:35;120.33;;;116.17;;
13605;SDS011;6874;52.084;5.090;2023-02-12T00:20:00;119.77;;;115.60;;
13605;SDS011;6874;52.084;5.090;2023-02-12T00:22:26;114.00;;;110.07;;
13605;SDS011;6874;52.084;5.090;2023-02-12T00:24:53;118.53;;;114.40;;
13605;SDS011;6874;52.084;5.090;2023-02-12T00:27:19;116.23;;;112.17;;
13605;SDS011;6874;52.084;5.090;2023-02-12T00:29:44;118.10;;;113.93;;
13605;SDS011;6874;52.084;5.090;2023-02-12T00:32:10;123.67;;;119.37;;
13605;SDS011;6874;52.084;5.090;2023-02-12T00:34:35;118.93;;;114.77;;
13605;SDS011;6874;52.084;5.090;2023-02-12T00:37:01;117.53;;;113.37;;
13605;SDS011;6874;52.084;5.090;2023-02-12T00:39:28;122.90;;;118.60;;
13605;SDS011;6874;52.084;5.090;2023-02-12T00:41:53;121.93;;;117.63;;
13605;SDS011;6874;52.084;5.090;2023-02-12T00:44:19;114.27;;;110.33;;
13605;SDS011;6874;52.084;5.090;2023-02-12T00:46:44;121.77;;;117.50;;
13605;SDS011;6874;52.084;5.090;2023-02-12T00:49:10;112.77;;;108.80;;
13605;SDS011;6874;52.084;5.090;2023-02-12T00:51:35;118.43;;;114.33;;
13605;SDS011;6874;52.084;5.090;2023-02-12T00:54:01;126.37;;;121.97;;
13605;SDS011;6874;52.084;5.090;2023-02-12T00:56:26;117.87;;;113.77;;
13605;SDS011;6874;52.084;5.090;2023-02-12T00:58:52;117.20;;;113.10;;
13605;SDS011;6874;52.084;5.090;2023-02-12T01:01:18;114.50;;;110.50;;
13605;SDS011;6874;52.084;5.090;2023-02-12T01:03:43;121.30;;;117.03;;
13605;SDS011;6874;52.084;5.090;2023-02-12T01:06:09;117.33;;;113.23;;
13605;SDS011;6874;52.084;5.090;2023-02-12T01:08:34;119.90;;;115.70;;
13605;SDS011;6874;52.084;5.090;2023-02-12T01:11:01;123.70;;;119.40;;
13605;SDS011;6874;52.084;5.090;2023-02-12T01:13:29;119.07;;;114.93;;
13605;SDS011;6874;52.084;5.090;2023-02-12T01:18:37;110.57;;;106.73;;
13605;SDS011;6874;52.084;5.090;2023-02-12T01:21:14;116.53;;;112.47;;
13605;SDS011;6874;52.084;5.090;2023-02-12T01:23:41;109.33;;;105.50;;
13605;SDS011;6874;52.084;5.090;2023-02-12T01:26:08;119.80;;;115.63;;
13605;SDS011;6874;52.084;5.090;2023-02-12T01:28:37;120.70;;;116.53;;
13605;SDS011;6874;52.084;5.090;2023-02-12T01:31:11;114.70;;;110.73;;
13605;SDS011;6874;52.084;5.090;2023-02-12T01:33:38;116.50;;;112.43;;
13605;SDS011;6874;52.084;5.090;2023-02-12T01:36:04;121.07;;;116.87;;
13605;SDS011;6874;52.084;5.090;2023-02-12T01:38:30;119.80;;;115.63;;
13605;SDS011;6874;52.084;5.090;2023-02-12T01:41:30;122.17;;;117.93;;
13605;SDS011;6874;52.084;5.090;2023-02-12T01:44:12;108.37;;;104.63;;
13605;SDS011;6874;52.084;5.090;2023-02-12T01:46:49;107.10;;;103.43;;
13605;SDS011;6874;52.084;5.090;2023-02-12T01:51:57;110.90;;;107.07;;
13605;SDS011;6874;52.084;5.090;2023-02-12T01:54:26;120.77;;;116.60;;
13605;SDS011;6874;52.084;5.090;2023-02-12T01:56:53;123.33;;;119.03;;
13605;SDS011;6874;52.084;5.090;2023-02-12T01:59:19;119.67;;;115.50;;
13605;SDS011;6874;52.084;5.090;2023-02-12T02:01:45;122.77;;;118.50;;
13605;SDS011;6874;52.084;5.090;2023-02-12T02:04:13;129.50;;;125.00;;
13605;SDS011;6874;52.084;5.090;2023-02-12T02:06:51;118.27;;;114.13;;
13605;SDS011;6874;52.084;5.090;2023-02-12T02:09:21;122.23;;;118.00;;
13605;SDS011;6874;52.084;5.090;2023-02-12T02:11:46;119.83;;;115.67;;
13605;SDS011;6874;52.084;5.090;2023-02-12T02:14:30;111.13;;;107.30;;
13605;SDS011;6874;52.084;5.090;2023-02-12T02:19:54;114.23;;;110.27;;
13605;SDS011;6874;52.084;5.090;2023-02-12T02:28:24;113.77;;;109.87;;
13605;SDS011;6874;52.084;5.090;2023-02-12T02:33:33;122.73;;;118.47;;
13605;SDS011;6874;52.084;5.090;2023-02-12T02:38:54;117.13;;;113.00;;
13605;SDS011;6874;52.084;5.090;2023-02-12T02:44:32;97.57;;;94.20;;
13605;SDS011;6874;52.084;5.090;2023-02-12T02:47:18;97.53;;;94.17;;
13605;SDS011;6874;52.084;5.090;2023-02-12T02:49:47;113.70;;;109.73;;
13605;SDS011;6874;52.084;5.090;2023-02-12T02:52:23;108.13;;;104.33;;
13605;SDS011;6874;52.084;5.090;2023-02-12T02:54:56;113.63;;;109.67;;
13605;SDS011;6874;52.084;5.090;2023-02-12T02:57:28;122.70;;;118.37;;
13605;SDS011;6874;52.084;5.090;2023-02-12T03:00:21;106.17;;;102.47;;
13605;SDS011;6874;52.084;5.090;2023-02-12T03:03:07;111.67;;;107.77;;
13605;SDS011;6874;52.084;5.090;2023-02-12T03:05:41;108.53;;;104.73;;
13605;SDS011;6874;52.084;5.090;2023-02-12T03:10:49;112.43;;;108.47;;
13605;SDS011;6874;52.084;5.090;2023-02-12T03:13:20;111.73;;;107.83;;
13605;SDS011;6874;52.084;5.090;2023-02-12T03:15:56;118.43;;;114.30;;
13605;SDS011;6874;52.084;5.090;2023-02-12T03:18:33;112.20;;;108.30;;
13605;SDS011;6874;52.084;5.090;2023-02-12T03:21:04;121.23;;;117.00;;
13605;SDS011;6874;52.084;5.090;2023-02-12T03:23:38;121.33;;;117.10;;
13605;SDS011;6874;52.084;5.090;2023-02-12T03:26:26;110.17;;;106.33;;
13605;SDS011;6874;52.084;5.090;2023-02-12T03:29:06;103.83;;;100.23;;
13605;SDS011;6874;52.084;5.090;2023-02-12T03:31:38;121.40;;;117.17;;
13605;SDS011;6874;52.084;5.090;2023-02-12T03:36:51;118.10;;;113.97;;
13605;SDS011;6874;52.084;5.090;2023-02-12T03:42:32;114.43;;;110.43;;
13605;SDS011;6874;52.084;5.090;2023-02-12T03:45:09;109.43;;;105.63;;
13605;SDS011;6874;52.084;5.090;2023-02-12T03:47:48;121.10;;;116.93;;
13605;SDS011;6874;52.084;5.090;2023-02-12T03:50:32;107.13;;;103.43;;
13605;SDS011;6874;52.084;5.090;2023-02-12T03:53:14;106.30;;;102.60;;
13605;SDS011;6874;52.084;5.090;2023-02-12T03:55:41;121.23;;;116.97;;
13605;SDS011;6874;52.084;5.090;2023-02-12T03:58:09;116.60;;;112.53;;
13605;SDS011;6874;52.084;5.090;2023-02-12T04:00:37;124.60;;;120.23;;
13605;SDS011;6874;52.084;5.090;2023-02-12T04:03:03;125.60;;;121.20;;
13605;SDS011;6874;52.084;5.090;2023-02-12T04:05:30;122.80;;;118.53;;
13605;SDS011;6874;52.084;5.090;2023-02-12T04:07:55;127.07;;;122.60;;
13605;SDS011;6874;52.084;5.090;2023-02-12T04:10:33;122.43;;;118.13;;
13605;SDS011;6874;52.084;5.090;2023-02-12T04:15:39;126.23;;;121.83;;
13605;SDS011;6874;52.084;5.090;2023-02-12T04:18:18;124.23;;;119.93;;
13605;SDS011;6874;52.084;5.090;2023-02-12T04:26:50;114.87;;;110.87;;
13605;SDS011;6874;52.084;5.090;2023-02-12T04:35:53;98.83;;;95.47;;
13605;SDS011;6874;52.084;5.090;2023-02-12T04:40:33;113.43;;;109.50;;
13605;SDS011;6874;52.084;5.090;2023-02-12T04:42:59;112.70;;;108.73;;
13605;SDS011;6874;52.084;5.090;2023-02-12T04:45:26;126.03;;;121.63;;
13605;SDS011;6874;52.084;5.090;2023-02-12T04:47:54;127.07;;;122.60;;
13605;SDS011;6874;52.084;5.090;2023-02-12T04:50:20;129.10;;;124.60;;
13605;SDS011;6874;52.084;5.090;2023-02-12T04:52:46;132.03;;;127.43;;
13605;SDS011;6874;52.084;5.090;2023-02-12T04:55:12;127.90;;;123.40;;
13605;SDS011;6874;52.084;5.090;2023-02-12T04:57:37;126.97;;;122.50;;
13605;SDS011;6874;52.084;5.090;2023-02-12T05:00:04;125.00;;;120.67;;
13605;SDS011;6874;52.084;5.090;2023-02-12T05:02:33;115.20;;;111.20;;
13605;SDS011;6874;52.084;5.090;2023-02-12T05:04:59;116.83;;;112.80;;
13605;SDS011;6874;52.084;5.090;2023-02-12T05:07:24;121.50;;;117.23;;
13605;SDS011;6874;52.084;5.090;2023-02-12T05:09:50;116.13;;;112.13;;
13605;SDS011;6874;52.084;5.090;2023-02-12T05:12:16;121.97;;;117.70;;
13605;SDS011;6874;52.084;5.090;2023-02-12T05:14:41;125.63;;;121.23;;
13605;SDS011;6874;52.084;5.090;2023-02-12T05:17:07;117.63;;;113.53;;
13605;SDS011;6874;52.084;5.090;2023-02-12T05:19:32;122.00;;;117.80;;
13605;SDS011;6874;52.084;5.090;2023-02-12T05:21:58;112.00;;;108.17;;
13605;SDS011;6874;52.084;5.090;2023-02-12T05:24:24;116.87;;;112.80;;
13605;SDS011;6874;52.084;5.090;2023-02-12T05:26:50;120.80;;;116.60;;
13605;SDS011;6874;52.084;5.090;2023-02-12T05:29:15;114.70;;;110.77;;
13605;SDS011;6874;52.084;5.090;2023-02-12T05:31:41;123.90;;;119.60;;
13605;SDS011;6874;52.084;5.090;2023-02-12T05:34:08;111.67;;;107.80;;
13605;SDS011;6874;52.084;5.090;2023-02-12T05:36:35;118.70;;;114.60;;
13605;SDS011;6874;52.084;5.090;2023-02-12T05:39:01;112.10;;;108.20;;
13605;SDS011;6874;52.084;5.090;2023-02-12T05:41:26;113.53;;;109.63;;
13605;SDS011;6874;52.084;5.090;2023-02-12T05:43:52;122.07;;;117.87;;
13605;SDS011;6874;52.084;5.090;2023-02-12T05:46:18;122.13;;;117.93;;
13605;SDS011;6874;52.084;5.090;2023-02-12T05:48:45;117.57;;;113.47;;
13605;SDS011;6874;52.084;5.090;2023-02-12T05:51:13;116.80;;;112.77;;
13605;SDS011;6874;52.084;5.090;2023-02-12T05:53:43;111.60;;;107.70;;
13605;SDS011;6874;52.084;5.090;2023-02-12T05:58:43;120.23;;;116.07;;
13605;SDS011;6874;52.084;5.090;2023-02-12T06:01:15;111.90;;;108.00;;
13605;SDS011;6874;52.084;5.090;2023-02-12T06:03:42;111.87;;;107.97;;
13605;SDS011;6874;52.084;5.090;2023-02-12T06:06:08;117.07;;;113.00;;
13605;SDS011;6874;52.084;5.090;2023-02-12T06:08:35;116.13;;;112.13;;
13605;SDS011;6874;52.084;5.090;2023-02-12T06:11:01;111.23;;;107.43;;
13605;SDS011;6874;52.084;5.090;2023-02-12T06:13:29;116.30;;;112.30;;
13605;SDS011;6874;52.084;5.090;2023-02-12T06:15:55;114.90;;;110.93;;
13605;SDS011;6874;52.084;5.090;2023-02-12T06:18:21;109.93;;;106.13;;
13605;SDS011;6874;52.084;5.090;2023-02-12T06:20:47;109.73;;;105.93;;
13605;SDS011;6874;52.084;5.090;2023-02-12T06:23:12;106.70;;;103.00;;
13605;SDS011;6874;52.084;5.090;2023-02-12T06:25:38;111.47;;;107.67;;
13605;SDS011;6874;52.084;5.090;2023-02-12T06:28:03;104.83;;;101.23;;
13605;SDS011;6874;52.084;5.090;2023-02-12T06:30:29;116.47;;;112.47;;
13605;SDS011;6874;52.084;5.090;2023-02-12T06:32:55;102.53;;;99.00;;
13605;SDS011;6874;52.084;5.090;2023-02-12T06:35:21;99.63;;;96.20;;
13605;SDS011;6874;52.084;5.090;2023-02-12T06:37:47;116.47;;;112.50;;
13605;SDS011;6874;52.084;5.090;2023-02-12T06:40:13;103.73;;;100.13;;
13605;SDS011;6874;52.084;5.090;2023-02-12T06:42:38;102.33;;;98.73;;
13605;SDS011;6874;52.084;5.090;2023-02-12T06:45:04;104.43;;;100.87;;
13605;SDS011;6874;52.084;5.090;2023-02-12T06:47:30;107.83;;;104.13;;
13605;SDS011;6874;52.084;5.090;2023-02-12T06:49:55;103.80;;;100.20;;
13605;SDS011;6874;52.084;5.090;2023-02-12T06:52:22;111.07;;;107.23;;
13605;SDS011;6874;52.084;5.090;2023-02-12T06:54:47;112.73;;;108.83;;
13605;SDS011;6874;52.084;5.090;2023-02-12T06:57:13;109.77;;;105.97;;
13605;SDS011;6874;52.084;5.090;2023-02-12T06:59:38;103.03;;;99.53;;
13605;SDS011;6874;52.084;5.090;2023-02-12T07:02:04;108.90;;;105.20;;
13605;SDS011;6874;52.084;5.090;2023-02-12T07:04:29;108.07;;;104.37;;
13605;SDS011;6874;52.084;5.090;2023-02-12T07:06:55;109.60;;;105.80;;
13605;SDS011;6874;52.084;5.090;2023-02-12T07:09:20;109.30;;;105.57;;
13605;SDS011;6874;52.084;5.090;2023-02-12T07:11:46;113.20;;;109.30;;
13605;SDS011;6874;52.084;5.090;2023-02-12T07:14:12;104.47;;;100.87;;
13605;SDS011;6874;52.084;5.090;2023-02-12T07:16:39;107.47;;;103.77;;
13605;SDS011;6874;52.084;5.090;2023-02-12T07:19:05;102.83;;;99.33;;
13605;SDS011;6874;52.084;5.090;2023-02-12T07:21:30;106.53;;;102.83;;
13605;SDS011;6874;52.084;5.090;2023-02-12T07:23:56;101.33;;;97.83;;
13605;SDS011;6874;52.084;5.090;2023-02-12T07:26:22;98.53;;;95.13;;
13605;SDS011;6874;52.084;5.090;2023-02-12T07:28:48;105.33;;;101.73;;
13605;SDS011;6874;52.084;5.090;2023-02-12T07:31:15;110.70;;;106.87;;
13605;SDS011;6874;52.084;5.090;2023-02-12T07:33:46;110.07;;;106.27;;
13605;SDS011;6874;52.084;5.090;2023-02-12T07:36:13;104.73;;;101.13;;
13605;SDS011;6874;52.084;5.090;2023-02-12T07:38:41;110.80;;;106.93;;
13605;SDS011;6874;52.084;5.090;2023-02-12T07:43:37;115.10;;;111.13;;
13605;SDS011;6874;52.084;5.090;2023-02-12T07:46:05;112.13;;;108.27;;
13605;SDS011;6874;52.084;5.090;2023-02-12T07:48:34;117.70;;;113.60;;
13605;SDS011;6874;52.084;5.090;2023-02-12T07:51:04;121.63;;;117.43;;
13605;SDS011;6874;52.084;5.090;2023-02-12T07:53:34;113.43;;;109.53;;
13605;SDS011;6874;52.084;5.090;2023-02-12T07:56:04;109.13;;;105.37;;
13605;SDS011;6874;52.084;5.090;2023-02-12T07:58:38;116.50;;;112.50;;
13605;SDS011;6874;52.084;5.090;2023-02-12T08:01:12;115.00;;;111.00;;
13605;SDS011;6874;52.084;5.090;2023-02-12T08:03:40;122.43;;;118.13;;
13605;SDS011;6874;52.084;5.090;2023-02-12T08:06:10;124.40;;;120.10;;
13605;SDS011;6874;52.084;5.090;2023-02-12T08:08:38;115.50;;;111.50;;
13605;SDS011;6874;52.084;5.090;2023-02-12T08:11:06;114.77;;;110.87;;
13605;SDS011;6874;52.084;5.090;2023-02-12T08:13:33;116.73;;;112.73;;
13605;SDS011;6874;52.084;5.090;2023-02-12T08:16:04;119.37;;;115.23;;
13605;SDS011;6874;52.084;5.090;2023-02-12T08:18:33;118.80;;;114.70;;
13605;SDS011;6874;52.084;5.090;2023-02-12T08:21:07;121.30;;;117.17;;
13605;SDS011;6874;52.084;5.090;2023-02-12T08:23:37;127.53;;;123.13;;
13605;SDS011;6874;52.084;5.090;2023-02-12T08:26:07;115.37;;;111.37;;
13605;SDS011;6874;52.084;5.090;2023-02-12T08:28:38;117.60;;;113.57;;
13605;SDS011;6874;52.084;5.090;2023-02-12T08:31:07;121.67;;;117.47;;
13605;SDS011;6874;52.084;5.090;2023-02-12T08:33:35;116.70;;;112.70;;
13605;SDS011;6874;52.084;5.090;2023-02-12T08:36:02;122.30;;;118.03;;
13605;SDS011;6874;52.084;5.090;2023-02-12T08:38:33;121.70;;;117.50;;
13605;SDS011;6874;52.084;5.090;2023-02-12T08:41:02;117.37;;;113.27;;
13605;SDS011;6874;52.084;5.090;2023-02-12T08:43:30;127.23;;;122.83;;
13605;SDS011;6874;52.084;5.090;2023-02-12T08:46:06;126.73;;;122.33;;
13605;SDS011;6874;52.084;5.090;2023-02-12T08:48:33;131.77;;;127.17;;
13605;SDS011;6874;52.084;5.090;2023-02-12T08:51:03;132.73;;;128.13;;
13605;SDS011;6874;52.084;5.090;2023-02-12T08:53:33;128.47;;;124.00;;
13605;SDS011;6874;52.084;5.090;2023-02-12T08:55:59;136.27;;;131.53;;
13605;SDS011;6874;52.084;5.090;2023-02-12T08:58:25;127.47;;;123.03;;
13605;SDS011;6874;52.084;5.090;2023-02-12T09:00:50;131.83;;;127.23;;
13605;SDS011;6874;52.084;5.090;2023-02-12T09:03:16;133.40;;;128.77;;
13605;SDS011;6874;52.084;5.090;2023-02-12T09:05:42;132.53;;;127.93;;
13605;SDS011;6874;52.084;5.090;2023-02-12T09:08:07;130.90;;;126.30;;
13605;SDS011;6874;52.084;5.090;2023-02-12T09:10:33;129.40;;;124.90;;
13605;SDS011;6874;52.084;5.090;2023-02-12T09:13:02;121.97;;;117.73;;
13605;SDS011;6874;52.084;5.090;2023-02-12T09:15:28;129.73;;;125.17;;
13605;SDS011;6874;52.084;5.090;2023-02-12T09:17:54;131.47;;;126.87;;
13605;SDS011;6874;52.084;5.090;2023-02-12T09:20:19;131.47;;;126.87;;
13605;SDS011;6874;52.084;5.090;2023-02-12T09:22:45;121.07;;;116.83;;
13605;SDS011;6874;52.084;5.090;2023-02-12T09:25:10;130.77;;;126.17;;
13605;SDS011;6874;52.084;5.090;2023-02-12T09:27:36;125.13;;;120.77;;
13605;SDS011;6874;52.084;5.090;2023-02-12T09:30:01;124.83;;;120.43;;
13605;SDS011;6874;52.084;5.090;2023-02-12T09:32:28;123.03;;;118.73;;
13605;SDS011;6874;52.084;5.090;2023-02-12T09:34:53;128.43;;;123.93;;
13605;SDS011;6874;52.084;5.090;2023-02-12T09:37:19;117.97;;;113.87;;
13605;SDS011;6874;52.084;5.090;2023-02-12T09:39:44;121.60;;;117.30;;
13605;SDS011;6874;52.084;5.090;2023-02-12T09:47:32;99.67;;;96.20;;
13605;SDS011;6874;52.084;5.090;2023-02-12T09:52:37;101.83;;;98.27;;
13605;SDS011;6874;52.084;5.090;2023-02-12T09:55:04;108.10;;;104.33;;
13605;SDS011;6874;52.084;5.090;2023-02-12T09:57:34;98.80;;;95.30;;
13605;SDS011;6874;52.084;5.090;2023-02-12T10:02:49;75.93;;;73.30;;
13605;SDS011;6874;52.084;5.090;2023-02-12T10:05:18;80.40;;;77.60;;
13605;SDS011;6874;52.084;5.090;2023-02-12T10:11:12;54.37;;;52.53;;
13605;SDS011;6874;52.084;5.090;2023-02-12T10:19:25;42.00;;;40.60;;
13605;SDS011;6874;52.084;5.090;2023-02-12T10:22:24;37.70;;;36.47;;
13605;SDS011;6874;52.084;5.090;2023-02-12T10:27:55;36.57;;;35.33;;
13605;SDS011;6874;52.084;5.090;2023-02-12T10:30:25;39.07;;;37.77;;
13605;SDS011;6874;52.084;5.090;2023-02-12T10:33:05;40.63;;;39.27;;
13605;SDS011;6874;52.084;5.090;2023-02-12T10:35:36;39.77;;;38.43;;
13605;SDS011;6874;52.084;5.090;2023-02-12T10:40:41;39.67;;;38.33;;
13605;SDS011;6874;52.084;5.090;2023-02-12T10:43:09;45.73;;;44.17;;
13605;SDS011;6874;52.084;5.090;2023-02-12T10:45:38;45.00;;;43.50;;
13605;SDS011;6874;52.084;5.090;2023-02-12T10:48:16;46.23;;;44.70;;
13605;SDS011;6874;52.084;5.090;2023-02-12T10:50:57;37.83;;;36.57;;
13605;SDS011;6874;52.084;5.090;2023-02-12T10:53:32;39.83;;;38.50;;
13605;SDS011;6874;52.084;5.090;2023-02-12T10:58:36;41.00;;;39.63;;
13605;SDS011;6874;52.084;5.090;2023-02-12T11:01:07;42.47;;;41.03;;
13605;SDS011;6874;52.084;5.090;2023-02-12T11:03:59;38.13;;;36.87;;
13605;SDS011;6874;52.084;5.090;2023-02-12T11:09:33;38.23;;;36.97;;
13605;SDS011;6874;52.084;5.090;2023-02-12T11:15:15;39.07;;;37.73;;
13605;SDS011;6874;52.084;5.090;2023-02-12T11:17:57;38.60;;;37.30;;
13605;SDS011;6874;52.084;5.090;2023-02-12T11:20:37;39.60;;;38.27;;
13605;SDS011;6874;52.084;5.090;2023-02-12T11:23:23;39.83;;;38.50;;
13605;SDS011;6874;52.084;5.090;2023-02-12T11:26:33;40.53;;;39.17;;
13605;SDS011;6874;52.084;5.090;2023-02-12T11:31:26;39.97;;;38.63;;
13605;SDS011;6874;52.084;5.090;2023-02-12T11:36:43;42.97;;;41.53;;
13605;SDS011;6874;52.084;5.090;2023-02-12T11:39:23;45.93;;;44.40;;
13605;SDS011;6874;52.084;5.090;2023-02-12T11:41:53;44.37;;;42.87;;
13605;SDS011;6874;52.084;5.090;2023-02-12T11:44:26;41.53;;;40.10;;
13605;SDS011;6874;52.084;5.090;2023-02-12T11:47:39;43.83;;;42.37;;
13605;SDS011;6874;52.084;5.090;2023-02-12T11:49:48;45.20;;;43.67;;
13605;SDS011;6874;52.084;5.090;2023-02-12T11:52:25;42.80;;;41.37;;
13605;SDS011;6874;52.084;5.090;2023-02-12T11:54:54;45.90;;;44.37;;
13605;SDS011;6874;52.084;5.090;2023-02-12T11:57:33;45.80;;;44.27;;
13605;SDS011;6874;52.084;5.090;2023-02-12T11:59:59;47.83;;;46.23;;
13605;SDS011;6874;52.084;5.090;2023-02-12T12:02:30;49.83;;;48.17;;
13605;SDS011;6874;52.084;5.090;2023-02-12T12:05:09;47.23;;;45.63;;
13605;SDS011;6874;52.084;5.090;2023-02-12T12:07:42;45.90;;;44.33;;
13605;SDS011;6874;52.084;5.090;2023-02-12T12:10:18;51.00;;;49.27;;
13605;SDS011;6874;52.084;5.090;2023-02-12T12:12:53;50.47;;;48.73;;
13605;SDS011;6874;52.084;5.090;2023-02-12T12:21:38;43.73;;;42.27;;
13605;SDS011;6874;52.084;5.090;2023-02-12T12:24:23;48.80;;;47.20;;
13605;SDS011;6874;52.084;5.090;2023-02-12T12:26:57;54.03;;;52.23;;
13605;SDS011;6874;52.084;5.090;2023-02-12T12:32:16;69.67;;;67.33;;
13605;SDS011;6874;52.084;5.090;2023-02-12T12:34:45;79.10;;;76.47;;
13605;SDS011;6874;52.084;5.090;2023-02-12T12:40:02;74.50;;;72.00;;
13605;SDS011;6874;52.084;5.090;2023-02-12T12:42:54;68.73;;;66.43;;
13605;SDS011;6874;52.084;5.090;2023-02-12T12:45:52;68.30;;;66.00;;
13605;SDS011;6874;52.084;5.090;2023-02-12T12:48:52;69.60;;;67.27;;
13605;SDS011;6874;52.084;5.090;2023-02-12T12:56:57;82.53;;;79.73;;
13605;SDS011;6874;52.084;5.090;2023-02-12T12:59:48;78.57;;;75.93;;
13605;SDS011;6874;52.084;5.090;2023-02-12T13:08:27;74.33;;;71.83;;
13605;SDS011;6874;52.084;5.090;2023-02-12T13:11:17;72.77;;;70.33;;
13605;SDS011;6874;52.084;5.090;2023-02-12T13:14:03;70.70;;;68.33;;
13605;SDS011;6874;52.084;5.090;2023-02-12T13:16:59;71.90;;;69.47;;
13605;SDS011;6874;52.084;5.090;2023-02-12T13:22:27;76.53;;;73.97;;
13605;SDS011;6874;52.084;5.090;2023-02-12T13:27:39;81.80;;;79.03;;
13605;SDS011;6874;52.084;5.090;2023-02-12T13:32:41;87.40;;;84.43;;
13605;SDS011;6874;52.084;5.090;2023-02-12T13:35:15;91.50;;;88.40;;
13605;SDS011;6874;52.084;5.090;2023-02-12T13:37:53;93.27;;;90.10;;
13605;SDS011;6874;52.084;5.090;2023-02-12T13:40:29;88.00;;;85.07;;
13605;SDS011;6874;52.084;5.090;2023-02-12T13:51:14;100.77;;;97.33;;
13605;SDS011;6874;52.084;5.090;2023-02-12T13:56:59;91.07;;;88.00;;
13605;SDS011;6874;52.084;5.090;2023-02-12T14:01:55;104.23;;;100.70;;
13605;SDS011;6874;52.084;5.090;2023-02-12T14:04:32;104.63;;;101.00;;
13605;SDS011;6874;52.084;5.090;2023-02-12T14:09:31;115.27;;;111.27;;
13605;SDS011;6874;52.084;5.090;2023-02-12T14:12:01;114.10;;;110.20;;
13605;SDS011;6874;52.084;5.090;2023-02-12T14:14:36;116.63;;;112.57;;
13605;SDS011;6874;52.084;5.090;2023-02-12T14:33:07;118.63;;;114.47;;
13605;SDS011;6874;52.084;5.090;2023-02-12T14:40:47;115.63;;;111.57;;
13605;SDS011;6874;52.084;5.090;2023-02-12T14:43:24;115.47;;;111.40;;
13605;SDS011;6874;52.084;5.090;2023-02-12T14:54:05;113.33;;;109.40;;
13605;SDS011;6874;52.084;5.090;2023-02-12T14:56:42;117.67;;;113.57;;
13605;SDS011;6874;52.084;5.090;2023-02-12T14:59:14;120.00;;;115.77;;
13605;SDS011;6874;52.084;5.090;2023-02-12T15:01:43;127.70;;;123.30;;
13605;SDS011;6874;52.084;5.090;2023-02-12T15:04:13;122.73;;;118.33;;
13605;SDS011;6874;52.084;5.090;2023-02-12T15:07:06;115.37;;;111.27;;
13605;SDS011;6874;52.084;5.090;2023-02-12T15:09:39;120.50;;;116.27;;
13605;SDS011;6874;52.084;5.090;2023-02-12T15:12:14;120.77;;;116.47;;
13605;SDS011;6874;52.084;5.090;2023-02-12T15:14:47;120.27;;;115.93;;
13605;SDS011;6874;52.084;5.090;2023-02-12T15:17:21;120.70;;;116.40;;
13605;SDS011;6874;52.084;5.090;2023-02-12T15:19:53;124.77;;;120.30;;
13605;SDS011;6874;52.084;5.090;2023-02-12T15:22:30;120.27;;;116.00;;
13605;SDS011;6874;52.084;5.090;2023-02-12T15:25:13;120.37;;;116.07;;
13605;SDS011;6874;52.084;5.090;2023-02-12T15:27:49;116.30;;;112.13;;
13605;SDS011;6874;52.084;5.090;2023-02-12T15:30:21;121.17;;;116.87;;
13605;SDS011;6874;52.084;5.090;2023-02-12T15:32:49;118.97;;;114.73;;
13605;SDS011;6874;52.084;5.090;2023-02-12T15:35:21;119.80;;;115.53;;
13605;SDS011;6874;52.084;5.090;2023-02-12T15:37:53;125.03;;;120.60;;
13605;SDS011;6874;52.084;5.090;2023-02-12T15:40:20;124.27;;;119.83;;
13605;SDS011;6874;52.084;5.090;2023-02-12T15:42:54;126.50;;;121.97;;
13605;SDS011;6874;52.084;5.090;2023-02-12T15:45:27;117.93;;;113.67;;
13605;SDS011;6874;52.084;5.090;2023-02-12T15:48:03;122.57;;;118.17;;
13605;SDS011;6874;52.084;5.090;2023-02-12T15:50:37;122.97;;;118.57;;
13605;SDS011;6874;52.084;5.090;2023-02-12T15:53:28;111.93;;;107.93;;
13605;SDS011;6874;52.084;5.090;2023-02-12T15:55:54;125.40;;;120.93;;
13605;SDS011;6874;52.084;5.090;2023-02-12T16:00:54;125.30;;;120.87;;
13605;SDS011;6874;52.084;5.090;2023-02-12T16:03:25;144.00;;;138.63;;
13605;SDS011;6874;52.084;5.090;2023-02-12T16:05:55;121.40;;;117.07;;
13605;SDS011;6874;52.084;5.090;2023-02-12T16:08:26;121.57;;;117.17;;
13605;SDS011;6874;52.084;5.090;2023-02-12T16:10:55;129.13;;;124.43;;
13605;SDS011;6874;52.084;5.090;2023-02-12T16:13:29;139.20;;;134.23;;
13605;SDS011;6874;52.084;5.090;2023-02-12T16:16:11;138.77;;;133.77;;
13605;SDS011;6874;52.084;5.090;2023-02-12T16:18:42;135.43;;;130.60;;
13605;SDS011;6874;52.084;5.090;2023-02-12T16:23:42;132.73;;;128.07;;
13605;SDS011;6874;52.084;5.090;2023-02-12T16:26:15;117.23;;;113.13;;
13605;SDS011;6874;52.084;5.090;2023-02-12T16:28:45;115.67;;;111.63;;
13605;SDS011;6874;52.084;5.090;2023-02-12T16:31:12;105.80;;;102.13;;
13605;SDS011;6874;52.084;5.090;2023-02-12T16:36:12;92.80;;;89.60;;
13605;SDS011;6874;52.084;5.090;2023-02-12T16:38:45;98.23;;;94.83;;
13605;SDS011;6874;52.084;5.090;2023-02-12T16:46:26;66.70;;;64.47;;
13605;SDS011;6874;52.084;5.090;2023-02-12T16:48:54;60.33;;;58.33;;
13605;SDS011;6874;52.084;5.090;2023-02-12T16:53:51;62.07;;;60.03;;
13605;SDS011;6874;52.084;5.090;2023-02-12T16:56:21;64.07;;;61.97;;
13605;SDS011;6874;52.084;5.090;2023-02-12T16:58:52;59.70;;;57.70;;
13605;SDS011;6874;52.084;5.090;2023-02-12T17:01:21;57.10;;;55.23;;
13605;SDS011;6874;52.084;5.090;2023-02-12T17:03:50;59.70;;;57.73;;
13605;SDS011;6874;52.084;5.090;2023-02-12T17:06:18;58.50;;;56.60;;
13605;SDS011;6874;52.084;5.090;2023-02-12T17:08:45;62.57;;;60.53;;
13605;SDS011;6874;52.084;5.090;2023-02-12T17:11:11;53.80;;;52.03;;
13605;SDS011;6874;52.084;5.090;2023-02-12T17:13:39;57.10;;;55.23;;
13605;SDS011;6874;52.084;5.090;2023-02-12T17:16:04;53.60;;;51.83;;
13605;SDS011;6874;52.084;5.090;2023-02-12T17:18:30;54.70;;;52.93;;
13605;SDS011;6874;52.084;5.090;2023-02-12T17:21:04;55.33;;;53.50;;
13605;SDS011;6874;52.084;5.090;2023-02-12T17:23:45;66.03;;;63.87;;
13605;SDS011;6874;52.084;5.090;2023-02-12T17:26:11;60.47;;;58.50;;
13605;SDS011;6874;52.084;5.090;2023-02-12T17:28:37;57.20;;;55.33;;
13605;SDS011;6874;52.084;5.090;2023-02-12T17:31:05;59.73;;;57.80;;
13605;SDS011;6874;52.084;5.090;2023-02-12T17:33:32;61.13;;;59.13;;
13605;SDS011;6874;52.084;5.090;2023-02-12T17:35:58;59.33;;;57.40;;
13605;SDS011;6874;52.084;5.090;2023-02-12T17:38:24;57.97;;;56.07;;
13605;SDS011;6874;52.084;5.090;2023-02-12T17:40:50;60.10;;;58.17;;